createdAt,value
2018-07-07T00:00:27.179Z,82.12
2018-07-07T00:02:55.830Z,82.41
2018-07-07T00:05:24.473Z,82.20
2018-07-07T00:07:53.167Z,82.23
2018-07-07T00:10:21.868Z,82.13
2018-07-07T00:12:50.496Z,82.57
2018-07-07T00:15:20.294Z,81.90
2018-07-07T00:17:49.449Z,82.51
2018-07-07T00:20:18.547Z,82.01
2018-07-07T00:22:47.593Z,81.58
2018-07-07T00:25:18.331Z,81.80
2018-07-07T00:27:47.465Z,80.76
2018-07-07T00:30:16.645Z,80.22
2018-07-07T00:32:45.305Z,80.08
2018-07-07T00:35:14.154Z,79.35
2018-07-07T00:37:42.866Z,79.70
2018-07-07T00:40:11.878Z,79.98
2018-07-07T00:42:40.871Z,80.26
2018-07-07T00:45:09.515Z,81.10
2018-07-07T00:47:38.405Z,81.13
2018-07-07T00:50:08.236Z,81.32
2018-07-07T00:52:36.846Z,81.17
2018-07-07T00:55:05.636Z,80.82
2018-07-07T00:57:34.256Z,80.59
2018-07-07T01:00:02.928Z,80.97
2018-07-07T01:02:31.609Z,81.50
2018-07-07T01:05:00.229Z,80.45
2018-07-07T01:07:28.856Z,80.87
2018-07-07T01:09:57.481Z,80.56
2018-07-07T01:12:26.107Z,80.16
2018-07-07T01:14:54.713Z,79.98
2018-07-07T01:17:23.347Z,78.55
2018-07-07T01:19:52.005Z,78.05
2018-07-07T01:22:20.601Z,75.71
2018-07-07T01:24:49.284Z,75.95
2018-07-07T01:27:17.898Z,75.23
2018-07-07T01:29:46.542Z,73.18
2018-07-07T01:32:15.204Z,73.69
2018-07-07T01:34:43.837Z,73.35
2018-07-07T01:37:12.491Z,73.99
2018-07-07T01:39:41.182Z,74.45
2018-07-07T01:42:09.841Z,76.34
2018-07-07T01:44:38.449Z,77.09
2018-07-07T01:47:07.056Z,76.68
2018-07-07T01:49:35.650Z,76.68
2018-07-07T01:52:04.323Z,76.37
2018-07-07T01:54:32.966Z,75.86
2018-07-07T01:57:01.562Z,76.83
2018-07-07T01:59:30.166Z,77.18
2018-07-07T02:01:59.533Z,77.02
2018-07-07T02:04:28.153Z,77.82
2018-07-07T02:06:56.774Z,78.17
2018-07-07T02:09:25.382Z,77.14
2018-07-07T02:11:54.019Z,77.20
2018-07-07T02:14:22.650Z,76.96
2018-07-07T02:16:51.281Z,76.85
2018-07-07T02:19:19.870Z,76.10
2018-07-07T02:21:48.519Z,75.46
2018-07-07T02:24:17.096Z,75.47
2018-07-07T02:26:45.802Z,74.57
2018-07-07T02:29:14.994Z,74.00
2018-07-07T02:31:43.592Z,73.68
2018-07-07T02:34:12.210Z,73.50
2018-07-07T02:36:40.833Z,74.29
2018-07-07T02:39:09.482Z,73.89
2018-07-07T02:41:38.088Z,73.78
2018-07-07T02:44:06.739Z,73.70
2018-07-07T02:46:35.309Z,74.27
2018-07-07T02:49:03.962Z,74.41
2018-07-07T02:51:32.585Z,74.17
2018-07-07T02:54:01.201Z,73.86
2018-07-07T02:56:29.826Z,73.79
2018-07-07T02:58:58.405Z,73.16
2018-07-07T03:01:27.041Z,72.77
2018-07-07T03:03:55.878Z,73.12
2018-07-07T03:06:24.474Z,73.68
2018-07-07T03:08:53.074Z,72.73
2018-07-07T03:11:21.725Z,72.54
2018-07-07T03:13:50.329Z,71.59
2018-07-07T03:16:18.946Z,72.01
2018-07-07T03:18:47.577Z,70.76
2018-07-07T03:21:16.217Z,71.20
2018-07-07T03:23:44.795Z,70.93
2018-07-07T03:26:13.411Z,71.29
2018-07-07T03:28:41.985Z,70.24
2018-07-07T03:31:10.567Z,70.02
2018-07-07T03:33:39.198Z,69.35
2018-07-07T03:36:07.830Z,70.24
2018-07-07T03:38:36.454Z,70.10
2018-07-07T03:41:05.038Z,69.96
2018-07-07T03:43:34.139Z,70.54
2018-07-07T03:46:02.730Z,69.32
2018-07-07T03:48:31.291Z,69.86
2018-07-07T03:50:59.893Z,69.44
2018-07-07T03:53:28.500Z,69.72
2018-07-07T03:55:57.077Z,69.92
2018-07-07T03:58:25.702Z,69.89
2018-07-07T04:00:54.701Z,69.58
2018-07-07T04:03:23.383Z,69.36
2018-07-07T04:05:52.075Z,69.66
2018-07-07T04:08:20.676Z,69.56
2018-07-07T04:10:49.301Z,69.71
2018-07-07T04:13:17.885Z,69.95
2018-07-07T04:15:47.455Z,69.69
2018-07-07T04:18:20.186Z,69.83
2018-07-07T04:20:48.880Z,69.60
2018-07-07T04:23:17.530Z,69.53
2018-07-07T04:25:46.319Z,70.08
2018-07-07T04:28:14.918Z,69.65
2018-07-07T04:30:43.660Z,69.54
2018-07-07T04:33:12.177Z,68.81
2018-07-07T04:35:40.773Z,68.31
2018-07-07T04:38:09.404Z,68.82
2018-07-07T04:40:38.006Z,68.35
2018-07-07T04:43:07.094Z,67.93
2018-07-07T04:45:35.714Z,68.27
2018-07-07T04:48:04.936Z,68.32
2018-07-07T04:50:33.561Z,68.00
2018-07-07T04:53:02.165Z,68.28
2018-07-07T04:55:30.819Z,67.85
2018-07-07T04:57:59.929Z,68.17
2018-07-07T05:00:28.668Z,67.47
2018-07-07T05:02:57.419Z,67.45
2018-07-07T05:05:26.024Z,67.41
2018-07-07T05:07:55.204Z,66.97
2018-07-07T05:10:23.972Z,66.54
2018-07-07T05:12:53.178Z,66.74
2018-07-07T05:15:22.055Z,66.10
2018-07-07T05:17:50.717Z,65.89
2018-07-07T05:20:19.505Z,65.46
2018-07-07T05:22:48.157Z,65.50
2018-07-07T05:25:16.790Z,65.02
2018-07-07T05:27:45.478Z,65.11
2018-07-07T05:30:14.159Z,65.00
2018-07-07T05:32:42.764Z,65.29
2018-07-07T05:35:11.427Z,64.51
2018-07-07T05:37:40.033Z,64.81
2018-07-07T05:40:08.697Z,65.12
2018-07-07T05:42:37.359Z,64.84
2018-07-07T05:45:07.298Z,65.23
2018-07-07T05:47:35.925Z,65.66
2018-07-07T05:50:04.763Z,64.95
2018-07-07T05:52:33.374Z,64.74
2018-07-07T05:55:02.006Z,64.93
2018-07-07T05:57:30.661Z,64.27
2018-07-07T05:59:59.350Z,64.72
2018-07-07T06:02:28.073Z,64.05
2018-07-07T06:04:56.662Z,64.87
2018-07-07T06:07:25.351Z,64.77
2018-07-07T06:09:53.994Z,64.58
2018-07-07T06:12:22.585Z,64.64
2018-07-07T06:14:51.201Z,64.41
2018-07-07T06:17:19.821Z,63.96
2018-07-07T06:19:48.444Z,64.55
2018-07-07T06:22:17.237Z,64.23
2018-07-07T06:24:45.877Z,63.68
2018-07-07T06:27:14.499Z,63.71
2018-07-07T06:29:43.071Z,63.18
2018-07-07T06:32:11.878Z,62.66
2018-07-07T06:34:40.477Z,63.30
2018-07-07T06:37:09.140Z,62.05
2018-07-07T06:39:37.770Z,61.74
2018-07-07T06:42:06.409Z,61.59
2018-07-07T06:44:35.173Z,60.99
2018-07-07T06:47:03.939Z,60.78
2018-07-07T06:49:32.692Z,60.73
2018-07-07T06:52:01.263Z,60.88
2018-07-07T06:54:29.857Z,61.09
2018-07-07T06:56:58.434Z,60.65
2018-07-07T06:59:27.054Z,61.04
2018-07-07T07:01:55.654Z,59.92
2018-07-07T07:04:24.241Z,59.19
2018-07-07T07:06:52.829Z,60.01
2018-07-07T07:09:21.425Z,60.15
2018-07-07T07:11:50.107Z,59.79
2018-07-07T07:14:18.794Z,59.93
2018-07-07T07:16:47.415Z,59.94
2018-07-07T07:19:16.068Z,59.53
2018-07-07T07:21:44.685Z,58.84
2018-07-07T07:24:13.398Z,58.90
2018-07-07T07:26:42.014Z,58.88
2018-07-07T07:29:10.680Z,58.69
2018-07-07T07:31:39.338Z,58.40
2018-07-07T07:34:08.006Z,58.77
2018-07-07T07:36:47.842Z,58.03
2018-07-07T07:39:16.713Z,57.46
2018-07-07T07:41:45.547Z,57.19
2018-07-07T07:44:14.216Z,56.69
2018-07-07T07:46:42.834Z,55.63
2018-07-07T07:49:11.463Z,54.73
2018-07-07T07:51:40.091Z,54.21
2018-07-07T07:54:08.741Z,53.84
2018-07-07T07:56:37.436Z,53.64
2018-07-07T07:59:06.219Z,54.03
2018-07-07T08:01:34.737Z,53.23
2018-07-07T08:04:03.368Z,52.95
2018-07-07T08:06:32.029Z,51.56
2018-07-07T08:09:00.664Z,51.28
2018-07-07T08:11:30.825Z,51.20
2018-07-07T08:13:59.505Z,49.63
2018-07-07T08:16:28.129Z,50.58
2018-07-07T08:18:56.733Z,49.29
2018-07-07T08:21:25.346Z,49.50
2018-07-07T08:23:53.938Z,48.12
2018-07-07T08:26:22.547Z,48.50
2018-07-07T08:28:51.214Z,49.12
2018-07-07T08:31:20.533Z,49.18
2018-07-07T08:33:49.190Z,49.64
2018-07-07T08:36:17.821Z,49.09
2018-07-07T08:38:46.401Z,48.57
2018-07-07T08:41:15.356Z,47.30
2018-07-07T08:43:44.039Z,46.95
2018-07-07T08:46:12.664Z,46.63
2018-07-07T08:48:41.300Z,46.55
2018-07-07T08:51:10.267Z,45.06
2018-07-07T08:53:38.879Z,44.16
2018-07-07T08:56:07.542Z,44.71
2018-07-07T08:58:36.175Z,44.64
2018-07-07T09:01:04.937Z,43.89
2018-07-07T09:03:33.559Z,42.77
2018-07-07T09:06:02.278Z,41.85
2018-07-07T09:08:30.889Z,42.30
2018-07-07T09:10:59.582Z,41.75
2018-07-07T09:13:28.193Z,41.64
2018-07-07T09:15:56.799Z,41.43
2018-07-07T09:18:25.755Z,41.99
2018-07-07T09:20:54.348Z,42.44
2018-07-07T09:23:23.734Z,42.28
2018-07-07T09:25:52.321Z,41.90
2018-07-07T09:28:20.961Z,41.21
2018-07-07T09:30:49.793Z,41.43
2018-07-07T09:33:18.428Z,41.54
2018-07-07T09:35:47.177Z,41.51
2018-07-07T09:38:16.946Z,41.40
2018-07-07T09:40:45.954Z,42.08
2018-07-07T09:43:14.580Z,41.19
2018-07-07T09:45:43.178Z,40.66
2018-07-07T09:48:11.887Z,40.05
2018-07-07T09:50:40.514Z,40.33
2018-07-07T09:53:09.132Z,39.38
2018-07-07T09:55:37.741Z,40.37
2018-07-07T09:58:06.658Z,40.49
2018-07-07T10:00:41.568Z,40.45
2018-07-07T10:03:10.666Z,40.92
2018-07-07T10:05:39.431Z,39.05
2018-07-07T10:08:08.130Z,38.96
2018-07-07T10:10:36.874Z,39.60
2018-07-07T10:13:06.258Z,38.05
2018-07-07T10:15:35.176Z,37.77
2018-07-07T10:18:03.977Z,37.03
2018-07-07T10:20:32.603Z,36.22
2018-07-07T10:23:01.250Z,36.69
2018-07-07T10:25:30.021Z,35.41
2018-07-07T10:27:58.665Z,35.13
2018-07-07T10:30:27.341Z,35.86
2018-07-07T10:32:56.013Z,36.33
2018-07-07T10:35:24.613Z,37.12
2018-07-07T10:37:53.308Z,37.82
2018-07-07T10:40:22.018Z,37.33
2018-07-07T10:42:50.906Z,38.11
2018-07-07T10:45:19.752Z,37.38
2018-07-07T10:47:48.385Z,37.14
2018-07-07T10:50:16.997Z,37.04
2018-07-07T10:52:46.008Z,37.34
2018-07-07T10:55:14.666Z,37.18
2018-07-07T10:57:43.330Z,37.24
2018-07-07T11:00:12.098Z,37.32
2018-07-07T11:02:40.898Z,38.13
2018-07-07T11:05:09.405Z,37.36
2018-07-07T11:07:38.004Z,36.52
2018-07-07T11:10:06.677Z,36.53
2018-07-07T11:12:35.359Z,37.60
2018-07-07T11:15:03.999Z,37.22
2018-07-07T11:17:32.705Z,36.74
2018-07-07T11:20:01.376Z,36.69
2018-07-07T11:22:30.000Z,36.65
2018-07-07T11:24:58.636Z,35.82
2018-07-07T11:27:27.224Z,36.02
2018-07-07T11:29:55.839Z,35.58
2018-07-07T11:32:24.542Z,35.62
2018-07-07T11:34:53.177Z,36.20
2018-07-07T11:37:21.769Z,35.83
2018-07-07T11:39:50.470Z,34.99
2018-07-07T11:42:19.120Z,35.64
2018-07-07T11:44:47.722Z,34.89
2018-07-07T11:47:16.408Z,34.54
2018-07-07T11:49:45.000Z,33.98
2018-07-07T11:52:13.678Z,34.27
2018-07-07T11:54:42.365Z,34.50
2018-07-07T11:57:11.033Z,35.04
2018-07-07T11:59:39.746Z,35.53
2018-07-07T12:02:08.361Z,34.78
2018-07-07T12:04:37.217Z,33.72
2018-07-07T12:07:05.765Z,33.56
2018-07-07T12:09:34.495Z,34.13
2018-07-07T12:12:03.175Z,34.03
2018-07-07T12:14:31.791Z,32.88
2018-07-07T12:17:00.381Z,32.20
2018-07-07T12:19:29.014Z,32.15
2018-07-07T12:21:57.567Z,32.77
2018-07-07T12:24:26.329Z,32.70
2018-07-07T12:26:54.985Z,31.70
2018-07-07T12:29:23.647Z,31.31
2018-07-07T12:31:52.270Z,31.90
2018-07-07T12:34:20.955Z,31.67
2018-07-07T12:36:49.564Z,32.51
2018-07-07T12:39:18.219Z,32.52
2018-07-07T12:41:46.850Z,32.68
2018-07-07T12:44:15.485Z,31.85
2018-07-07T12:46:44.121Z,31.16
2018-07-07T12:49:12.772Z,31.26
2018-07-07T12:51:41.511Z,30.38
2018-07-07T12:54:10.138Z,30.00
2018-07-07T12:56:38.789Z,29.52
2018-07-07T12:59:07.415Z,30.67
2018-07-07T13:01:36.010Z,29.03
2018-07-07T13:04:04.638Z,29.69
2018-07-07T13:06:33.256Z,30.33
2018-07-07T13:09:01.878Z,30.24
2018-07-07T13:11:30.577Z,29.90
2018-07-07T13:13:59.230Z,30.05
2018-07-07T13:16:27.862Z,29.66
2018-07-07T13:18:56.522Z,30.08
2018-07-07T13:21:25.153Z,28.62
2018-07-07T13:23:53.741Z,28.51
2018-07-07T13:26:22.408Z,29.51
2018-07-07T13:28:51.080Z,29.14
2018-07-07T13:31:20.521Z,29.14
2018-07-07T13:33:49.280Z,28.86
2018-07-07T13:36:17.920Z,28.28
2018-07-07T13:38:46.545Z,28.76
2018-07-07T13:41:15.209Z,28.33
2018-07-07T13:43:43.852Z,28.82
2018-07-07T13:46:12.538Z,29.18
2018-07-07T13:48:41.229Z,29.05
2018-07-07T13:51:09.822Z,29.01
2018-07-07T13:53:38.457Z,29.12
2018-07-07T13:56:07.135Z,28.61
2018-07-07T13:58:35.760Z,28.43
2018-07-07T14:01:04.455Z,27.02
2018-07-07T14:03:33.067Z,26.74
2018-07-07T14:06:01.824Z,26.21
2018-07-07T14:08:30.413Z,26.21
2018-07-07T14:10:59.081Z,25.71
2018-07-07T14:13:27.744Z,25.02
2018-07-07T14:15:56.371Z,24.72
2018-07-07T14:18:25.060Z,24.43
2018-07-07T14:20:53.658Z,25.18
2018-07-07T14:23:22.299Z,23.69
2018-07-07T14:25:50.913Z,21.90
2018-07-07T14:28:19.545Z,20.47
2018-07-07T14:30:48.153Z,20.14
2018-07-07T14:33:16.799Z,19.69
2018-07-07T14:35:45.437Z,19.43
2018-07-07T14:38:14.134Z,18.90
2018-07-07T14:40:54.598Z,19.13
2018-07-07T14:43:23.535Z,18.62
2018-07-07T14:46:03.100Z,17.61
2018-07-07T14:48:31.690Z,19.31
2018-07-07T14:51:00.887Z,19.58
2018-07-07T14:53:29.543Z,19.04
2018-07-07T14:55:58.183Z,19.63
2018-07-07T14:58:26.922Z,18.91
2018-07-07T15:00:55.557Z,18.98
2018-07-07T15:03:24.181Z,18.72
2018-07-07T15:05:52.871Z,17.96
2018-07-07T15:08:21.507Z,17.37
2018-07-07T15:10:50.143Z,19.72
2018-07-07T15:13:19.138Z,18.93
2018-07-07T15:15:48.537Z,19.15
2018-07-07T15:18:17.116Z,19.06
2018-07-07T15:20:45.734Z,18.66
2018-07-07T15:23:14.337Z,17.68
2018-07-07T15:25:42.977Z,18.11
2018-07-07T15:28:11.685Z,19.06
2018-07-07T15:30:40.554Z,18.67
2018-07-07T15:33:09.342Z,18.36
2018-07-07T15:35:37.961Z,17.32
2018-07-07T15:38:06.587Z,17.12
2018-07-07T15:40:35.183Z,15.26
2018-07-07T15:43:03.868Z,15.14
2018-07-07T15:45:32.569Z,16.88
2018-07-07T15:48:01.754Z,17.08
2018-07-07T15:50:30.383Z,17.16
2018-07-07T15:52:59.081Z,17.05
2018-07-07T15:55:27.708Z,16.59
2018-07-07T15:57:57.053Z,15.78
2018-07-07T16:00:25.748Z,16.53
2018-07-07T16:02:54.415Z,15.48
2018-07-07T16:05:23.038Z,16.63
2018-07-07T16:07:51.698Z,16.14
2018-07-07T16:10:20.319Z,16.21
2018-07-07T16:12:48.938Z,15.65
2018-07-07T16:15:17.578Z,15.83
2018-07-07T16:17:46.218Z,16.25
2018-07-07T16:20:14.839Z,15.77
2018-07-07T16:22:43.487Z,15.19
2018-07-07T16:25:12.234Z,15.23
2018-07-07T16:27:42.426Z,14.45
2018-07-07T16:30:11.117Z,15.63
2018-07-07T16:32:39.741Z,15.85
2018-07-07T16:35:08.357Z,15.36
2018-07-07T16:37:37.053Z,15.98
2018-07-07T16:40:05.724Z,16.60
2018-07-07T16:42:36.569Z,15.72
2018-07-07T16:45:06.177Z,15.11
2018-07-07T16:47:35.044Z,15.23
2018-07-07T16:50:03.817Z,15.64
2018-07-07T16:52:33.642Z,15.35
2018-07-07T16:55:02.327Z,17.34
2018-07-07T16:57:30.985Z,16.14
2018-07-07T16:59:59.852Z,16.85
2018-07-07T17:02:28.526Z,16.31
2018-07-07T17:04:57.185Z,15.84
2018-07-07T17:07:25.845Z,16.28
2018-07-07T17:09:54.568Z,15.88
2018-07-07T17:12:23.505Z,16.68
2018-07-07T17:14:52.161Z,16.59
2018-07-07T17:17:22.634Z,15.28
2018-07-07T17:19:51.257Z,16.86
2018-07-07T17:22:19.901Z,16.58
2018-07-07T17:24:48.562Z,17.26
2018-07-07T17:27:17.276Z,16.84
2018-07-07T17:29:46.064Z,17.19
2018-07-07T17:32:14.950Z,17.83
2018-07-07T17:34:43.600Z,17.30
2018-07-07T17:37:12.269Z,16.76
2018-07-07T17:39:40.909Z,17.54
2018-07-07T17:42:09.901Z,17.55
2018-07-07T17:44:38.589Z,17.84
2018-07-07T17:47:07.883Z,18.44
2018-07-07T17:49:36.714Z,17.86
2018-07-07T17:52:05.445Z,17.83
2018-07-07T17:54:34.114Z,19.44
2018-07-07T17:57:02.942Z,20.33
2018-07-07T17:59:31.673Z,20.46
2018-07-07T18:02:00.720Z,20.76
2018-07-07T18:04:29.407Z,20.79
2018-07-07T18:06:58.027Z,22.35
2018-07-07T18:09:27.731Z,23.04
2018-07-07T18:11:56.524Z,24.29
2018-07-07T18:14:25.048Z,25.37
2018-07-07T18:16:53.691Z,25.25
2018-07-07T18:19:22.344Z,25.62
2018-07-07T18:21:50.971Z,26.21
2018-07-07T18:24:19.610Z,26.64
2018-07-07T18:26:48.243Z,26.16
2018-07-07T18:29:16.925Z,26.63
2018-07-07T18:31:45.554Z,27.21
2018-07-07T18:34:14.248Z,27.74
2018-07-07T18:36:43.163Z,27.67
2018-07-07T18:39:11.862Z,28.04
2018-07-07T18:41:40.451Z,28.28
2018-07-07T18:44:09.146Z,28.76
2018-07-07T18:46:37.754Z,28.55
2018-07-07T18:49:06.387Z,28.72
2018-07-07T18:51:35.043Z,29.34
2018-07-07T18:54:03.756Z,29.69
2018-07-07T18:56:32.530Z,29.29
2018-07-07T18:59:01.108Z,29.89
2018-07-07T19:01:29.822Z,30.28
2018-07-07T19:03:58.505Z,29.96
2018-07-07T19:06:27.195Z,30.19
2018-07-07T19:08:55.841Z,30.43
2018-07-07T19:11:24.478Z,30.55
2018-07-07T19:13:53.117Z,30.76
2018-07-07T19:16:21.820Z,31.34
2018-07-07T19:18:50.538Z,30.86
2018-07-07T19:21:24.323Z,31.25
2018-07-07T19:23:58.203Z,31.34
2018-07-07T19:26:32.049Z,31.19
2018-07-07T19:29:00.667Z,31.34
2018-07-07T19:31:29.364Z,31.42
2018-07-07T19:34:03.196Z,31.09
2018-07-07T19:36:37.098Z,31.30
2018-07-07T19:39:06.771Z,30.86
2018-07-07T19:41:35.489Z,31.22
2018-07-07T19:44:04.289Z,30.71
2018-07-07T19:46:33.325Z,30.47
2018-07-07T19:49:02.151Z,30.90
2018-07-07T19:51:31.195Z,30.51
2018-07-07T19:53:59.867Z,30.90
2018-07-07T19:56:29.902Z,31.14
2018-07-07T19:58:58.556Z,30.95
2018-07-07T20:01:27.239Z,31.53
2018-07-07T20:03:55.859Z,30.62
2018-07-07T20:06:24.964Z,30.55
2018-07-07T20:08:53.927Z,30.71
2018-07-07T20:11:22.577Z,29.90
2018-07-07T20:13:51.695Z,28.71
2018-07-07T20:16:26.566Z,29.01
2018-07-07T20:19:15.551Z,29.27
2018-07-07T20:21:53.167Z,29.14
2018-07-07T20:24:23.563Z,29.01
2018-07-07T20:26:57.756Z,29.35
2018-07-07T20:29:26.623Z,29.04
2018-07-07T20:31:55.647Z,29.13
2018-07-07T20:44:04.872Z,29.31
2018-07-07T20:46:33.650Z,29.43
2018-07-07T20:49:02.693Z,29.92
2018-07-07T20:51:31.426Z,29.95
2018-07-07T20:54:00.103Z,30.04
2018-07-07T20:56:28.786Z,30.39
2018-07-07T20:58:57.439Z,29.86
2018-07-07T21:01:26.676Z,30.31
2018-07-07T21:03:55.922Z,30.80
2018-07-07T21:06:24.952Z,30.35
2018-07-07T21:08:55.802Z,30.83
2018-07-07T21:11:28.085Z,30.44
2018-07-07T21:13:59.621Z,30.67
2018-07-07T21:16:31.667Z,31.09
2018-07-07T21:19:04.623Z,31.04
2018-07-07T21:21:33.460Z,31.28
2018-07-07T21:24:02.097Z,31.25
2018-07-07T21:26:37.345Z,31.98
2018-07-07T21:29:05.997Z,31.49
2018-07-07T21:31:34.978Z,31.47
2018-07-07T21:34:03.689Z,31.85
2018-07-07T21:36:32.775Z,31.64
2018-07-07T21:39:01.409Z,31.52
2018-07-07T21:41:30.085Z,32.58
2018-07-07T21:43:58.809Z,31.19
2018-07-07T21:46:27.509Z,32.22
2018-07-07T21:48:56.158Z,31.50
2018-07-07T21:51:24.794Z,31.72
2018-07-07T21:53:53.586Z,31.40
2018-07-07T21:56:22.114Z,31.58
2018-07-07T21:58:54.845Z,31.23
2018-07-07T22:01:38.161Z,31.40
2018-07-07T22:04:11.971Z,30.60
2018-07-07T22:06:45.661Z,30.75
2018-07-07T22:09:15.305Z,31.22
2018-07-07T22:11:43.898Z,30.56
2018-07-07T22:14:12.626Z,30.90
2018-07-07T22:16:41.274Z,30.64
2018-07-07T22:19:09.895Z,30.62
2018-07-07T22:21:49.333Z,31.31
2018-07-07T22:24:17.963Z,30.82
2018-07-07T22:26:46.795Z,31.26
2018-07-07T22:29:16.050Z,31.41
2018-07-07T22:31:44.711Z,31.85
2018-07-07T22:34:13.361Z,31.80
2018-07-07T22:36:42.037Z,30.86
2018-07-07T22:39:10.666Z,31.38
2018-07-07T22:41:55.125Z,31.46
2018-07-07T22:44:23.756Z,30.96
2018-07-07T22:46:52.857Z,30.67
2018-07-07T22:49:21.510Z,30.94
2018-07-07T22:51:50.174Z,31.57
2018-07-07T22:54:19.592Z,31.29
2018-07-07T22:56:48.237Z,30.99
2018-07-07T22:59:16.889Z,31.24
2018-07-07T23:01:45.529Z,30.88
2018-07-07T23:04:14.214Z,30.21
2018-07-07T23:06:43.785Z,30.25
2018-07-07T23:09:13.681Z,31.00
2018-07-07T23:11:42.287Z,30.64
2018-07-07T23:14:11.023Z,30.89
2018-07-07T23:16:39.717Z,31.33
2018-07-07T23:19:09.036Z,30.83
2018-07-07T23:21:37.703Z,31.38
2018-07-07T23:24:06.441Z,30.20
2018-07-07T23:26:35.073Z,30.70
2018-07-07T23:29:04.258Z,30.85
2018-07-07T23:31:32.929Z,30.72
2018-07-07T23:34:02.759Z,30.46
2018-07-07T23:36:31.408Z,29.71
2018-07-07T23:39:00.062Z,30.94
2018-07-07T23:41:28.669Z,30.80
2018-07-07T23:43:57.317Z,30.53
2018-07-07T23:46:26.633Z,30.51
2018-07-07T23:48:55.232Z,30.65
2018-07-07T23:51:23.875Z,30.04
2018-07-07T23:53:52.498Z,31.06
2018-07-07T23:56:21.157Z,30.22
2018-07-07T23:58:49.801Z,30.27
